Time;durP1;ratioP1;P1;durP2;ratioP2;P2;SDS_P1;SDS_P2;PMS_P1;PMS_P2;Temp;Humidity;BMP_temperature;BMP_pressure;BME280_temperature;BME280_humidity;BME280_pressure;Samples;Min_cycle;Max_cycle;Signal;HPM_P1;HPM_P2
2022/10/18 00:02:23;;;;;;;2.83;1.90;;;12.80;99.90;;;;;;5028230;28;20816;-48
2022/10/18 00:04:50;;;;;;;4.67;1.83;;;12.70;99.90;;;;;;5028313;28;20531;-47
2022/10/18 00:07:17;;;;;;;2.70;1.90;;;12.60;99.90;;;;;;5028301;28;20442;-47
2022/10/18 00:09:45;;;;;;;2.17;1.83;;;12.70;99.90;;;;;;5028266;28;20461;-47
2022/10/18 00:12:12;;;;;;;2.40;2.10;;;12.80;99.90;;;;;;5028111;28;20449;-47
2022/10/18 00:14:39;;;;;;;2.73;1.63;;;12.90;99.90;;;;;;5028600;28;20523;-47
2022/10/18 00:17:06;;;;;;;2.63;1.87;;;12.40;99.90;;;;;;5028867;28;20524;-47
2022/10/18 00:19:33;;;;;;;8.90;1.80;;;12.10;99.90;;;;;;5027843;28;21027;-47
2022/10/18 00:21:59;;;;;;;2.83;1.83;;;12.40;99.90;;;;;;5028151;28;20491;-46
2022/10/18 00:24:26;;;;;;;3.57;1.63;;;12.60;99.90;;;;;;5027769;28;20483;-47
2022/10/18 00:26:54;;;;;;;2.93;1.97;;;11.90;99.90;;;;;;5028594;28;20444;-46
2022/10/18 00:29:21;;;;;;;3.60;2.17;;;12.10;99.90;;;;;;5027622;28;20453;-47
2022/10/18 00:31:48;;;;;;;1.80;1.50;;;12.40;99.90;;;;;;5028063;28;20541;-47
2022/10/18 00:34:16;;;;;;;2.97;1.63;;;12.40;99.90;;;;;;5027665;28;20524;-47
2022/10/18 00:36:44;;;;;;;3.63;2.03;;;12.30;99.90;;;;;;5027964;28;20443;-47
2022/10/18 00:39:17;;;;;;;3.20;1.70;;;12.30;99.90;;;;;;5028331;28;20488;-47
2022/10/18 00:41:44;;;;;;;2.47;1.77;;;12.50;99.90;;;;;;5028349;28;20464;-47
2022/10/18 00:44:48;;;;;;;3.10;1.40;;;12.20;99.90;;;;;;5027588;28;20574;-47
2022/10/18 00:47:17;;;;;;;2.10;1.50;;;12.10;99.90;;;;;;5027962;28;20816;-47
2022/10/18 00:49:50;;;;;;;2.17;1.20;;;12.20;99.90;;;;;;5028049;28;20448;-47
2022/10/18 00:52:22;;;;;;;3.67;1.97;;;12.30;99.90;;;;;;5027890;28;20497;-46
2022/10/18 00:54:51;;;;;;;2.20;1.57;;;12.30;99.90;;;;;;5027398;28;20606;-48
2022/10/18 00:57:18;;;;;;;3.57;1.77;;;12.20;99.90;;;;;;5027913;28;20446;-48
2022/10/18 00:59:47;;;;;;;3.47;1.97;;;11.20;99.90;;;;;;5027641;28;20819;-48
2022/10/18 01:02:17;;;;;;;3.67;2.03;;;11.30;99.90;;;;;;5027949;28;20450;-48
2022/10/18 01:04:46;;;;;;;2.23;1.63;;;11.40;99.90;;;;;;5027586;28;20844;-46
2022/10/18 01:07:30;;;;;;;3.83;2.00;;;11.60;99.90;;;;;;5027661;28;20504;-47
2022/10/18 01:10:03;;;;;;;3.60;1.93;;;11.70;99.90;;;;;;5027384;28;20851;-46
2022/10/18 01:12:44;;;;;;;2.93;1.70;;;11.80;99.90;;;;;;5027647;28;20479;-46
2022/10/18 01:15:17;;;;;;;2.60;1.70;;;12.10;99.90;;;;;;5029276;28;20540;-47
2022/10/18 01:18:03;;;;;;;2.40;2.00;;;12.30;99.90;;;;;;5031128;28;20531;-46
2022/10/18 01:21:04;;;;;;;3.63;1.83;;;12.30;99.90;;;;;;5030785;28;21010;-47
2022/10/18 01:23:55;;;;;;;2.97;1.83;;;11.80;99.90;;;;;;5016092;28;20479;-46
2022/10/18 01:26:38;;;;;;;2.73;1.80;;;12.10;99.90;;;;;;5030632;28;20961;-47
2022/10/18 01:29:15;;;;;;;2.80;2.00;;;12.20;99.90;;;;;;5030902;28;20441;-49
2022/10/18 01:31:46;;;;;;;5.40;2.40;;;12.30;99.90;;;;;;5030498;28;20475;-48
2022/10/18 01:34:16;;;;;;;2.70;1.40;;;12.30;99.90;;;;;;5030623;28;20447;-46
2022/10/18 01:36:48;;;;;;;2.50;1.70;;;12.40;99.90;;;;;;5030764;28;20539;-46
2022/10/18 01:39:19;;;;;;;2.73;2.03;;;12.50;99.90;;;;;;5030496;28;20448;-46
2022/10/18 01:41:48;;;;;;;3.10;2.33;;;12.40;99.90;;;;;;5030557;28;20474;-47
2022/10/18 01:44:19;;;;;;;6.90;2.03;;;11.90;99.90;;;;;;5030325;28;20480;-47
2022/10/18 01:46:47;;;;;;;4.80;2.60;;;12.00;99.90;;;;;;5030568;28;20449;-47
2022/10/18 01:49:14;;;;;;;2.70;1.60;;;12.00;99.90;;;;;;5030349;28;20493;-46
2022/10/18 01:51:41;;;;;;;4.30;1.70;;;11.90;99.90;;;;;;5030287;28;20547;-47
2022/10/18 01:54:08;;;;;;;2.83;1.80;;;11.70;99.90;;;;;;5030373;28;20532;-48
2022/10/18 01:56:41;;;;;;;4.60;1.90;;;12.00;99.90;;;;;;5030774;28;20462;-48
2022/10/18 01:59:25;;;;;;;3.23;2.33;;;12.00;99.90;;;;;;5030543;28;20835;-46
2022/10/18 02:02:00;;;;;;;4.53;2.03;;;11.70;99.90;;;;;;5031143;28;20577;-46
2022/10/18 02:04:34;;;;;;;4.77;1.70;;;11.90;99.90;;;;;;5030367;28;20919;-47
2022/10/18 02:07:06;;;;;;;3.83;1.73;;;12.00;99.90;;;;;;5030409;28;20443;-44
2022/10/18 02:09:38;;;;;;;2.53;1.73;;;11.90;99.90;;;;;;5030106;28;20527;-46
2022/10/18 02:12:08;;;;;;;2.80;1.53;;;11.50;99.90;;;;;;5029968;28;20440;-47
2022/10/18 02:14:36;;;;;;;4.80;1.90;;;11.30;99.90;;;;;;5029895;28;21020;-47
2022/10/18 02:17:07;;;;;;;2.60;1.60;;;11.70;99.90;;;;;;5029941;28;21023;-47
2022/10/18 02:19:38;;;;;;;2.80;1.90;;;11.80;99.90;;;;;;5029647;28;20984;-48
2022/10/18 02:22:07;;;;;;;4.90;1.70;;;12.00;99.90;;;;;;5029749;28;20455;-46
2022/10/18 02:24:38;;;;;;;4.90;1.80;;;11.90;99.90;;;;;;5029992;28;20477;-46
2022/10/18 02:27:05;;;;;;;2.87;1.80;;;12.10;99.90;;;;;;5028716;28;20535;-47
2022/10/18 02:29:33;;;;;;;3.20;2.03;;;12.10;99.90;;;;;;5029912;28;20543;-47
2022/10/18 02:32:09;;;;;;;3.53;1.87;;;12.10;99.90;;;;;;5029762;28;20447;-48
2022/10/18 02:34:39;;;;;;;3.30;1.70;;;12.10;99.90;;;;;;5029466;28;20440;-46
2022/10/18 02:37:07;;;;;;;3.67;1.87;;;12.10;99.90;;;;;;5029696;28;21032;-46
2022/10/18 02:39:36;;;;;;;2.67;1.80;;;12.10;99.90;;;;;;5029738;28;20536;-48
2022/10/18 02:42:05;;;;;;;4.77;2.03;;;12.20;99.90;;;;;;5029707;28;20543;-47
2022/10/18 02:44:33;;;;;;;2.23;1.60;;;11.70;99.90;;;;;;5029150;28;20486;-49
2022/10/18 02:47:00;;;;;;;2.70;1.73;;;11.90;99.90;;;;;;5029443;28;20547;-46
2022/10/18 02:49:28;;;;;;;2.37;1.63;;;12.10;99.90;;;;;;5029670;28;20444;-47
2022/10/18 02:51:55;;;;;;;2.30;1.80;;;12.20;99.90;;;;;;5029333;28;20547;-47
2022/10/18 02:54:22;;;;;;;3.43;1.73;;;12.00;99.90;;;;;;5029111;28;21014;-47
2022/10/18 02:56:49;;;;;;;2.30;1.53;;;11.80;99.90;;;;;;5029804;28;20451;-48
2022/10/18 02:59:16;;;;;;;2.33;1.77;;;11.50;99.90;;;;;;5029445;28;20535;-47
2022/10/18 03:01:43;;;;;;;2.30;1.77;;;11.60;99.90;;;;;;5029063;28;20558;-46
2022/10/18 03:04:10;;;;;;;2.17;1.53;;;11.40;99.90;;;;;;5029042;28;20479;-47
2022/10/18 03:06:38;;;;;;;4.23;1.77;;;11.50;99.90;;;;;;5028934;28;20476;-47
2022/10/18 03:09:06;;;;;;;2.80;2.10;;;11.60;99.90;;;;;;5029071;28;20797;-47
2022/10/18 03:11:33;;;;;;;4.40;2.13;;;11.10;99.90;;;;;;5029008;28;20474;-47
2022/10/18 03:14:00;;;;;;;2.47;1.70;;;11.30;99.90;;;;;;5028713;28;20440;-49
2022/10/18 03:16:27;;;;;;;2.97;1.73;;;11.60;99.90;;;;;;5028919;28;20449;-45
2022/10/18 03:18:54;;;;;;;3.70;2.40;;;11.80;99.90;;;;;;5029248;28;20529;-49
2022/10/18 03:21:21;;;;;;;5.07;2.67;;;11.70;99.90;;;;;;5029221;28;20555;-47
2022/10/18 03:23:49;;;;;;;3.97;3.27;;;11.60;99.90;;;;;;5028455;28;20490;-46
2022/10/18 03:26:16;;;;;;;3.00;2.67;;;11.80;99.90;;;;;;5028947;28;20458;-47
2022/10/18 03:28:43;;;;;;;8.47;3.73;;;12.00;99.90;;;;;;5028664;28;20538;-47
2022/10/18 03:31:10;;;;;;;3.20;2.67;;;12.10;99.90;;;;;;5028816;28;20555;-47
2022/10/18 03:33:37;;;;;;;3.37;2.53;;;11.90;99.90;;;;;;5028733;28;20444;-46
2022/10/18 03:36:04;;;;;;;2.67;2.27;;;11.20;99.90;;;;;;5029213;28;20533;-47
2022/10/18 03:38:31;;;;;;;2.53;1.80;;;11.40;99.90;;;;;;5028451;28;20470;-47
2022/10/18 03:40:59;;;;;;;4.13;2.17;;;11.60;99.90;;;;;;5029077;28;20464;-47
2022/10/18 03:43:26;;;;;;;5.00;2.13;;;11.70;99.90;;;;;;5028781;28;20534;-48
2022/10/18 03:45:53;;;;;;;2.50;1.63;;;11.60;99.90;;;;;;5028869;28;20489;-46
2022/10/18 03:48:19;;;;;;;3.47;2.53;;;11.60;99.90;;;;;;5028661;28;21029;-46
2022/10/18 03:50:46;;;;;;;5.23;3.10;;;11.90;99.90;;;;;;5028587;28;21024;-47
2022/10/18 03:53:13;;;;;;;3.50;2.33;;;11.90;99.90;;;;;;5028579;28;20988;-46
2022/10/18 03:55:40;;;;;;;3.23;1.90;;;11.50;99.90;;;;;;5028250;28;20441;-46
2022/10/18 03:58:08;;;;;;;2.83;1.57;;;11.40;99.90;;;;;;5028555;28;20447;-47
2022/10/18 04:00:36;;;;;;;2.60;2.00;;;11.30;99.90;;;;;;5028261;28;20910;-46
2022/10/18 04:03:03;;;;;;;2.30;1.80;;;11.30;99.90;;;;;;5028074;28;20447;-48
2022/10/18 04:05:30;;;;;;;4.30;2.30;;;11.50;99.90;;;;;;5028760;28;20565;-46
2022/10/18 04:07:57;;;;;;;2.50;1.83;;;11.30;99.90;;;;;;5028381;28;21108;-46
2022/10/18 04:10:24;;;;;;;4.50;1.90;;;11.30;99.90;;;;;;5028340;28;20909;-47
2022/10/18 04:12:51;;;;;;;6.40;2.07;;;11.60;99.90;;;;;;5028490;28;20440;-45
2022/10/18 04:15:19;;;;;;;2.70;2.10;;;11.40;99.90;;;;;;5028077;28;20527;-48
2022/10/18 04:17:47;;;;;;;3.33;2.10;;;11.20;99.90;;;;;;5028287;28;20447;-47
2022/10/18 04:20:14;;;;;;;4.77;2.90;;;11.30;99.90;;;;;;5028300;28;20843;-46
2022/10/18 04:22:41;;;;;;;2.33;2.00;;;11.60;99.90;;;;;;5028227;28;20535;-47
2022/10/18 04:25:08;;;;;;;5.03;2.73;;;11.70;99.90;;;;;;5027706;28;20489;-46
2022/10/18 04:27:35;;;;;;;4.43;3.63;;;11.70;99.90;;;;;;5028038;28;20521;-47
2022/10/18 04:30:02;;;;;;;3.20;2.43;;;11.70;99.90;;;;;;5027905;28;20726;-46
2022/10/18 04:32:30;;;;;;;3.70;2.47;;;11.80;99.90;;;;;;5027820;28;20815;-47
2022/10/18 04:34:57;;;;;;;3.10;2.10;;;11.80;99.90;;;;;;5028008;28;20550;-46
2022/10/18 04:37:24;;;;;;;12.90;11.23;;;11.60;99.90;;;;;;5027987;28;21008;-47
2022/10/18 04:39:51;;;;;;;8.20;7.50;;;11.60;99.90;;;;;;5027955;28;20448;-47
2022/10/18 04:42:18;;;;;;;10.90;9.80;;;11.60;99.90;;;;;;5027863;28;20481;-47
2022/10/18 04:44:44;;;;;;;6.30;5.63;;;11.60;99.90;;;;;;5027677;28;20482;-46
2022/10/18 04:47:11;;;;;;;5.33;4.10;;;11.50;99.90;;;;;;5027701;28;20491;-46
2022/10/18 04:49:39;;;;;;;5.67;4.70;;;11.50;99.90;;;;;;5028686;28;20874;-47
2022/10/18 04:52:06;;;;;;;12.07;10.87;;;11.10;99.90;;;;;;5031847;28;20525;-46
2022/10/18 04:54:33;;;;;;;6.73;6.03;;;11.20;99.90;;;;;;5030972;28;20514;-47
2022/10/18 04:57:00;;;;;;;3.93;2.60;;;11.30;99.90;;;;;;5031020;28;20537;-49
2022/10/18 04:59:27;;;;;;;9.10;4.53;;;11.30;99.90;;;;;;5031185;28;20449;-46
2022/10/18 05:01:54;;;;;;;3.50;2.80;;;11.40;99.90;;;;;;5030863;28;20471;-47
2022/10/18 05:04:20;;;;;;;4.20;2.57;;;11.60;99.90;;;;;;5030954;28;20526;-49
2022/10/18 05:06:49;;;;;;;3.40;2.87;;;11.80;99.90;;;;;;5031287;28;20880;-47
2022/10/18 05:09:16;;;;;;;6.00;3.90;;;11.90;99.90;;;;;;5031179;28;20449;-47
2022/10/18 05:11:42;;;;;;;4.30;3.30;;;11.80;99.90;;;;;;5031062;28;20466;-47
2022/10/18 05:14:09;;;;;;;4.40;3.00;;;11.60;99.90;;;;;;5030705;28;20439;-48
2022/10/18 05:16:36;;;;;;;3.97;2.70;;;11.10;99.90;;;;;;5030937;28;20955;-46
2022/10/18 05:19:04;;;;;;;3.93;2.13;;;11.30;99.90;;;;;;5031150;28;20447;-46
2022/10/18 05:21:31;;;;;;;6.23;2.67;;;11.10;99.90;;;;;;5030978;28;20466;-46
2022/10/18 05:23:59;;;;;;;4.60;3.00;;;10.60;99.90;;;;;;5030741;28;20439;-48
2022/10/18 05:26:26;;;;;;;3.10;2.43;;;10.40;99.90;;;;;;5030923;28;20569;-47
2022/10/18 05:28:53;;;;;;;2.87;2.30;;;10.30;99.90;;;;;;5030628;28;20447;-48
2022/10/18 05:31:21;;;;;;;3.23;2.10;;;10.70;99.90;;;;;;5031228;28;20473;-48
2022/10/18 05:33:47;;;;;;;5.53;3.80;;;11.00;99.90;;;;;;5030572;28;20480;-47
2022/10/18 05:36:15;;;;;;;9.20;3.60;;;11.00;99.90;;;;;;5030681;28;20861;-47
2022/10/18 05:38:44;;;;;;;9.23;4.07;;;11.10;99.90;;;;;;5031010;28;20881;-47
2022/10/18 05:41:12;;;;;;;3.80;3.07;;;10.90;99.90;;;;;;5031080;28;20608;-47
2022/10/18 05:43:40;;;;;;;5.37;3.30;;;10.70;99.90;;;;;;5030340;28;20632;-48
2022/10/18 05:46:07;;;;;;;4.87;4.37;;;10.70;99.90;;;;;;5030505;28;20489;-47
2022/10/18 05:48:34;;;;;;;3.10;2.60;;;10.20;99.90;;;;;;5030691;28;20449;-47
2022/10/18 05:51:01;;;;;;;6.93;2.43;;;10.00;99.90;;;;;;5030238;28;20549;-48
2022/10/18 05:53:28;;;;;;;7.23;4.37;;;10.20;99.90;;;;;;5030295;28;20533;-48
2022/10/18 05:55:55;;;;;;;6.97;4.20;;;10.60;99.90;;;;;;5030234;28;20892;-47
2022/10/18 05:58:24;;;;;;;7.80;3.57;;;10.90;99.90;;;;;;5030385;28;20549;-48
2022/10/18 06:00:50;;;;;;;7.07;4.00;;;11.10;99.90;;;;;;5029766;28;20558;-47
2022/10/18 06:03:17;;;;;;;5.87;4.00;;;11.10;99.90;;;;;;5029873;28;20548;-47
2022/10/18 06:05:44;;;;;;;5.57;4.23;;;11.00;99.90;;;;;;5030867;28;20992;-47
2022/10/18 06:08:11;;;;;;;5.60;4.00;;;10.70;99.90;;;;;;5030335;28;21004;-47
2022/10/18 06:10:39;;;;;;;5.00;3.03;;;10.40;99.90;;;;;;5029929;28;20550;-47
2022/10/18 06:13:06;;;;;;;4.13;2.77;;;9.50;99.90;;;;;;5029835;28;20451;-47
2022/10/18 06:15:34;;;;;;;4.57;2.23;;;9.90;99.90;;;;;;5030027;28;20442;-49
2022/10/18 06:18:01;;;;;;;6.23;2.90;;;10.40;99.90;;;;;;5030220;28;20469;-51
2022/10/18 06:20:28;;;;;;;3.60;2.30;;;10.50;99.90;;;;;;5029972;28;20550;-47
2022/10/18 06:22:55;;;;;;;5.07;2.63;;;10.90;99.90;;;;;;5030055;28;20498;-47
2022/10/18 06:25:22;;;;;;;5.17;3.30;;;11.10;99.90;;;;;;5030123;28;20594;-49
2022/10/18 06:27:48;;;;;;;4.33;2.90;;;11.20;99.90;;;;;;5030097;28;20465;-48
2022/10/18 06:30:15;;;;;;;6.83;3.20;;;11.20;99.90;;;;;;5029654;28;21059;-47
2022/10/18 06:32:44;;;;;;;5.60;3.80;;;10.70;99.90;;;;;;5029699;28;20534;-48
2022/10/18 06:35:10;;;;;;;4.53;2.80;;;10.60;99.90;;;;;;5029685;28;20523;-48
2022/10/18 06:37:37;;;;;;;8.10;4.30;;;10.90;99.90;;;;;;5029928;28;20454;-47
2022/10/18 06:40:05;;;;;;;5.83;5.23;;;11.00;99.90;;;;;;5030073;28;20550;-47
2022/10/18 06:42:32;;;;;;;5.40;3.70;;;10.80;99.90;;;;;;5029718;28;20526;-48
2022/10/18 06:45:00;;;;;;;5.20;3.97;;;10.90;99.90;;;;;;5029351;28;20479;-48
2022/10/18 06:47:27;;;;;;;8.37;3.90;;;11.10;99.90;;;;;;5029655;28;20530;-47
2022/10/18 06:49:55;;;;;;;3.87;3.47;;;11.00;99.90;;;;;;5029584;28;20527;-47
2022/10/18 06:52:24;;;;;;;3.40;2.57;;;11.00;99.90;;;;;;5029684;28;20672;-47
2022/10/18 06:54:51;;;;;;;3.23;2.33;;;11.00;99.90;;;;;;5029075;28;20937;-47
2022/10/18 06:57:18;;;;;;;8.50;5.47;;;11.00;99.90;;;;;;5029362;28;20945;-47
2022/10/18 06:59:45;;;;;;;10.37;7.10;;;11.00;99.90;;;;;;5029406;28;20447;-47
2022/10/18 07:02:16;;;;;;;10.90;7.83;;;10.20;99.90;;;;;;5029388;28;21024;-51
2022/10/18 07:04:42;;;;;;;11.47;5.50;;;8.70;99.90;;;;;;5029296;28;20449;-47
2022/10/18 07:07:11;;;;;;;11.27;4.97;;;8.80;99.90;;;;;;5029735;28;20537;-47
2022/10/18 07:09:37;;;;;;;5.70;3.70;;;9.20;99.90;;;;;;5029205;28;20447;-48
2022/10/18 07:12:05;;;;;;;4.00;2.97;;;9.70;99.90;;;;;;5028330;28;20799;-47
2022/10/18 07:14:32;;;;;;;6.40;4.37;;;10.10;99.90;;;;;;5029292;28;20453;-47
2022/10/18 07:16:59;;;;;;;6.90;4.80;;;10.00;99.90;;;;;;5029146;28;20522;-47
2022/10/18 07:19:26;;;;;;;7.10;4.07;;;10.20;99.90;;;;;;5029128;28;20456;-46
2022/10/18 07:21:53;;;;;;;8.40;5.80;;;10.20;99.90;;;;;;5028831;28;20467;-47
2022/10/18 07:24:21;;;;;;;13.77;8.30;;;10.10;99.90;;;;;;5028494;28;20475;-47
2022/10/18 07:26:48;;;;;;;10.80;7.30;;;9.90;99.90;;;;;;5028656;28;21018;-47
2022/10/18 07:29:15;;;;;;;11.20;7.43;;;9.90;99.90;;;;;;5028811;28;20474;-46
2022/10/18 07:31:42;;;;;;;7.07;5.87;;;9.90;99.90;;;;;;5028950;28;20505;-50
2022/10/18 07:34:12;;;;;;;6.10;4.73;;;9.90;99.90;;;;;;5028742;28;20438;-45
2022/10/18 07:36:39;;;;;;;6.57;4.80;;;10.20;99.90;;;;;;5028763;28;20992;-47
2022/10/18 07:39:06;;;;;;;4.70;3.33;;;10.40;99.90;;;;;;5028860;28;20450;-47
2022/10/18 07:41:35;;;;;;;4.17;3.30;;;10.60;99.90;;;;;;5028584;28;20900;-47
2022/10/18 07:44:02;;;;;;;5.40;3.90;;;10.80;99.90;;;;;;5028385;28;20474;-47
2022/10/18 07:46:29;;;;;;;6.50;4.53;;;10.70;99.90;;;;;;5028550;28;20485;-50
2022/10/18 07:48:57;;;;;;;6.83;5.53;;;10.70;99.90;;;;;;5028723;28;20490;-48
2022/10/18 07:51:24;;;;;;;8.40;4.50;;;10.60;99.90;;;;;;5028337;28;21038;-47
2022/10/18 07:53:50;;;;;;;4.80;3.73;;;10.70;99.90;;;;;;5028232;28;20539;-47
2022/10/18 07:56:20;;;;;;;6.40;5.60;;;10.90;99.90;;;;;;5028540;28;20445;-50
2022/10/18 07:58:51;;;;;;;9.17;6.60;;;11.00;99.90;;;;;;5028511;28;20511;-47
2022/10/18 08:01:18;;;;;;;5.00;4.23;;;10.30;99.90;;;;;;5030038;28;20517;-47
2022/10/18 08:03:45;;;;;;;4.90;3.97;;;10.30;99.90;;;;;;5028099;28;20531;-47
2022/10/18 08:06:15;;;;;;;8.20;4.97;;;10.70;99.90;;;;;;5028295;28;20480;-47
2022/10/18 08:08:42;;;;;;;6.00;4.77;;;11.00;99.90;;;;;;5028604;28;20860;-47
2022/10/18 08:11:11;;;;;;;7.87;4.70;;;11.00;99.90;;;;;;5028204;28;21051;-48
2022/10/18 08:13:38;;;;;;;7.17;6.47;;;10.80;99.90;;;;;;5028170;28;20448;-47
2022/10/18 08:16:09;;;;;;;7.33;5.10;;;10.30;99.90;;;;;;5028208;28;20953;-47
2022/10/18 08:18:36;;;;;;;8.93;4.20;;;10.20;99.90;;;;;;5028340;28;20443;-48
2022/10/18 08:21:05;;;;;;;9.73;4.17;;;10.60;99.90;;;;;;5028161;28;20466;-48
2022/10/18 08:23:32;;;;;;;11.17;4.30;;;11.00;99.90;;;;;;5028153;28;20531;-48
2022/10/18 08:26:01;;;;;;;7.80;3.13;;;11.30;99.90;;;;;;5030842;28;20567;-47
2022/10/18 08:28:28;;;;;;;9.13;2.90;;;11.50;99.90;;;;;;5031413;28;20444;-48
2022/10/18 08:30:54;;;;;;;5.00;2.40;;;11.80;99.90;;;;;;5031672;28;20465;-47
2022/10/18 08:33:23;;;;;;;3.10;2.40;;;12.00;99.90;;;;;;5031889;28;20529;-47
2022/10/18 08:35:56;;;;;;;4.60;2.57;;;12.10;99.90;;;;;;5031763;28;20469;-47
2022/10/18 08:38:23;;;;;;;9.37;3.93;;;12.20;99.90;;;;;;5031736;28;20525;-47
2022/10/18 08:40:50;;;;;;;4.23;2.57;;;12.30;99.90;;;;;;5031483;28;20666;-47
2022/10/18 08:43:26;;;;;;;5.00;3.00;;;12.30;99.90;;;;;;5031465;28;21028;-48
2022/10/18 08:45:54;;;;;;;4.50;2.70;;;12.50;99.90;;;;;;5031647;28;20574;-47
2022/10/18 08:48:30;;;;;;;3.40;2.33;;;12.60;99.90;;;;;;5031403;28;20488;-48
2022/10/18 08:50:59;;;;;;;3.60;2.23;;;12.60;99.90;;;;;;5031178;28;20474;-48
2022/10/18 08:53:29;;;;;;;3.90;3.23;;;12.70;99.90;;;;;;5030929;28;20520;-47
2022/10/18 08:56:04;;;;;;;4.27;3.20;;;12.80;99.90;;;;;;5031613;28;20532;-48
2022/10/18 08:58:32;;;;;;;5.13;3.00;;;12.80;99.90;;;;;;5031141;28;20895;-49
2022/10/18 09:01:09;;;;;;;6.60;3.80;;;12.80;99.90;;;;;;5031210;28;20831;-47
2022/10/18 09:04:05;;;;;;;7.43;3.53;;;12.90;99.90;;;;;;5031126;28;20472;-48
2022/10/18 09:06:35;;;;;;;5.67;3.73;;;13.10;99.90;;;;;;5031354;28;20477;-48
2022/10/18 09:09:15;;;;;;;7.20;4.00;;;13.20;99.90;;;;;;5031244;28;20441;-49
2022/10/18 09:11:54;;;;;;;4.37;3.20;;;13.20;99.90;;;;;;5031100;28;20472;-48
2022/10/18 09:14:46;;;;;;;4.83;2.27;;;13.30;99.90;;;;;;5030989;28;20448;-48
2022/10/18 09:17:24;;;;;;;3.53;2.00;;;13.30;99.90;;;;;;5030804;28;20442;-48
2022/10/18 09:20:06;;;;;;;3.80;2.70;;;13.50;99.90;;;;;;5030986;28;20871;-48
2022/10/18 09:22:48;;;;;;;4.17;2.17;;;13.50;99.90;;;;;;5030875;28;20469;-47
2022/10/18 09:25:19;;;;;;;4.67;2.27;;;13.50;99.90;;;;;;5030882;28;20471;-47
2022/10/18 09:27:52;;;;;;;3.23;2.63;;;13.70;99.90;;;;;;5030875;28;20492;-47
2022/10/18 09:30:29;;;;;;;5.10;2.43;;;13.70;99.90;;;;;;5030176;28;20572;-47
2022/10/18 09:33:03;;;;;;;2.87;2.13;;;13.70;99.90;;;;;;5030733;28;20445;-46
2022/10/18 09:35:42;;;;;;;4.03;2.50;;;13.80;99.90;;;;;;5030225;28;20816;-47
2022/10/18 09:38:12;;;;;;;3.43;2.30;;;13.80;99.90;;;;;;5030508;28;20529;-47
2022/10/18 09:40:48;;;;;;;3.40;2.37;;;14.00;99.90;;;;;;5030904;28;20562;-48
2022/10/18 09:43:20;;;;;;;3.77;2.40;;;14.20;99.90;;;;;;5030625;28;20528;-47
2022/10/18 09:45:48;;;;;;;5.67;2.40;;;14.20;99.90;;;;;;5030505;28;20449;-47
2022/10/18 09:48:20;;;;;;;3.43;2.43;;;14.20;99.90;;;;;;5030578;28;20446;-47
2022/10/18 09:50:54;;;;;;;5.77;3.00;;;14.30;99.90;;;;;;5030405;28;20468;-49
2022/10/18 09:53:32;;;;;;;3.70;2.70;;;14.30;99.90;;;;;;5030182;28;20529;-48
2022/10/18 09:56:03;;;;;;;3.10;2.30;;;14.40;99.90;;;;;;5030429;28;20439;-48
2022/10/18 09:58:44;;;;;;;4.17;2.63;;;14.40;99.90;;;;;;5030652;28;20457;-48
2022/10/18 10:01:14;;;;;;;3.47;2.83;;;14.50;99.90;;;;;;5030298;28;20478;-47
2022/10/18 10:03:42;;;;;;;3.10;2.70;;;14.70;99.90;;;;;;5029958;28;20526;-49
2022/10/18 10:06:25;;;;;;;3.60;2.67;;;14.70;99.90;;;;;;5023568;28;20479;-47
2022/10/18 10:09:00;;;;;;;3.30;2.30;;;14.70;99.90;;;;;;5016737;28;20451;-48
2022/10/18 10:11:29;;;;;;;3.10;2.40;;;14.80;99.90;;;;;;5008553;28;20550;-47
2022/10/18 10:13:58;;;;;;;3.20;2.23;;;14.80;99.90;;;;;;5016500;28;20525;-49
2022/10/18 10:16:27;;;;;;;3.40;2.63;;;14.90;99.90;;;;;;5013998;28;20443;-49
2022/10/18 10:18:54;;;;;;;3.03;2.37;;;14.80;99.90;;;;;;5010705;28;20451;-48
2022/10/18 10:21:24;;;;;;;5.60;2.93;;;14.80;99.90;;;;;;5018100;28;20840;-48
2022/10/18 10:23:54;;;;;;;2.47;2.07;;;15.00;99.90;;;;;;5018219;28;20550;-49
2022/10/18 10:26:24;;;;;;;4.20;2.50;;;15.10;99.90;;;;;;5018566;28;20846;-48
2022/10/18 10:28:51;;;;;;;3.73;2.40;;;15.10;99.90;;;;;;5009765;28;20450;-50
2022/10/18 10:31:28;;;;;;;2.83;2.40;;;15.20;99.90;;;;;;5010133;28;20551;-48
2022/10/18 10:34:01;;;;;;;3.47;2.40;;;15.20;99.90;;;;;;5010292;28;20445;-48
2022/10/18 10:36:30;;;;;;;2.97;2.50;;;15.20;99.90;;;;;;5010461;28;20824;-50
2022/10/18 10:39:07;;;;;;;4.50;2.50;;;15.20;99.90;;;;;;5009959;28;20534;-48
2022/10/18 10:41:35;;;;;;;3.30;2.37;;;15.20;99.90;;;;;;5010145;28;20550;-49
2022/10/18 10:44:03;;;;;;;3.00;2.47;;;15.20;99.90;;;;;;5017288;28;20527;-48
2022/10/18 10:46:35;;;;;;;2.83;2.10;;;15.10;99.90;;;;;;5026179;28;20475;-50
2022/10/18 10:49:02;;;;;;;4.73;2.87;;;15.10;99.90;;;;;;5029206;28;20443;-47
2022/10/18 10:51:32;;;;;;;5.50;2.93;;;15.10;99.90;;;;;;5029759;28;20554;-48
2022/10/18 10:54:02;;;;;;;3.77;3.30;;;15.40;99.90;;;;;;5027903;28;20448;-48
2022/10/18 10:56:32;;;;;;;4.80;2.63;;;15.50;99.90;;;;;;5021001;28;20530;-48
2022/10/18 10:59:06;;;;;;;3.73;3.37;;;15.70;99.90;;;;;;5013659;28;20540;-48
2022/10/18 11:01:33;;;;;;;3.50;2.53;;;15.70;99.90;;;;;;5012188;28;20469;-48
2022/10/18 11:04:03;;;;;;;3.70;3.00;;;15.80;99.90;;;;;;5009497;28;20444;-48
2022/10/18 11:06:48;;;;;;;2.80;2.50;;;15.90;99.90;;;;;;5009817;28;20993;-48
2022/10/18 11:09:37;;;;;;;4.17;2.80;;;16.00;99.90;;;;;;5009467;28;20940;-47
2022/10/18 11:12:18;;;;;;;4.00;3.07;;;16.10;99.90;;;;;;5009030;28;20522;-47
2022/10/18 11:14:50;;;;;;;4.03;2.90;;;16.20;99.90;;;;;;5009328;28;20457;-48
2022/10/18 11:17:25;;;;;;;4.27;2.80;;;16.10;99.90;;;;;;5009461;28;20442;-48
2022/10/18 11:20:04;;;;;;;3.50;2.53;;;16.10;99.90;;;;;;5009474;28;20445;-48
2022/10/18 11:22:36;;;;;;;3.03;2.30;;;16.20;99.90;;;;;;5009598;28;20443;-48
2022/10/18 11:25:03;;;;;;;2.77;2.10;;;16.20;99.90;;;;;;5009111;28;20471;-50
2022/10/18 11:27:36;;;;;;;5.00;3.33;;;16.20;99.90;;;;;;5009362;28;20483;-48
2022/10/18 11:30:16;;;;;;;5.80;3.03;;;16.10;99.90;;;;;;5008754;28;20501;-48
2022/10/18 11:32:54;;;;;;;4.20;3.13;;;16.10;99.90;;;;;;5009266;28;20810;-48
2022/10/18 11:35:31;;;;;;;4.83;3.60;;;16.10;99.90;;;;;;5009623;28;20534;-49
2022/10/18 11:38:18;;;;;;;4.13;2.70;;;16.20;99.90;;;;;;5009404;28;20445;-48
2022/10/18 11:40:57;;;;;;;5.27;3.20;;;16.30;99.90;;;;;;5008919;28;20498;-50
2022/10/18 11:43:30;;;;;;;3.47;2.40;;;16.50;99.90;;;;;;5008987;28;20469;-48
2022/10/18 11:46:05;;;;;;;6.00;3.00;;;16.50;99.90;;;;;;5008048;28;20439;-47
2022/10/18 11:48:52;;;;;;;3.10;2.70;;;16.40;99.90;;;;;;5008874;28;20565;-50
2022/10/18 11:51:27;;;;;;;4.00;3.00;;;16.40;99.90;;;;;;5009092;28;20833;-48
2022/10/18 11:54:16;;;;;;;3.30;2.40;;;16.50;99.90;;;;;;5009060;28;20439;-48
2022/10/18 11:56:52;;;;;;;4.53;3.00;;;16.60;99.90;;;;;;5009073;28;20440;-48
2022/10/18 11:59:29;;;;;;;2.90;2.47;;;16.60;99.90;;;;;;5008982;28;20439;-50
2022/10/18 12:02:09;;;;;;;2.97;2.37;;;16.60;99.90;;;;;;5009022;28;20471;-47
2022/10/18 12:04:41;;;;;;;4.30;3.13;;;16.40;99.90;;;;;;5008508;28;20453;-48
2022/10/18 12:07:14;;;;;;;4.20;3.30;;;16.60;99.90;;;;;;5008750;28;20476;-48
2022/10/18 12:09:45;;;;;;;4.43;3.00;;;16.50;99.90;;;;;;5008740;28;20546;-48
2022/10/18 12:12:16;;;;;;;5.30;3.23;;;16.60;99.90;;;;;;5008558;28;20447;-48
2022/10/18 12:14:48;;;;;;;4.03;3.17;;;16.70;99.90;;;;;;5008567;28;20882;-48
2022/10/18 12:17:22;;;;;;;4.27;3.23;;;16.90;99.90;;;;;;5008514;28;20444;-48
2022/10/18 12:19:51;;;;;;;4.77;3.03;;;16.80;99.90;;;;;;5008595;28;20527;-48
2022/10/18 12:22:23;;;;;;;4.17;2.90;;;16.80;99.90;;;;;;5008530;28;20532;-49
2022/10/18 12:24:51;;;;;;;3.60;3.13;;;16.80;99.90;;;;;;5008541;28;20530;-48
2022/10/18 12:27:23;;;;;;;3.00;2.43;;;16.90;99.90;;;;;;5008435;28;20584;-48
2022/10/18 12:29:58;;;;;;;3.57;2.63;;;17.00;99.90;;;;;;5008213;28;20470;-48
2022/10/18 12:32:27;;;;;;;3.80;3.00;;;17.10;99.90;;;;;;5008785;28;20448;-48
2022/10/18 12:35:00;;;;;;;3.20;2.90;;;17.10;99.90;;;;;;5008524;28;20447;-48
2022/10/18 12:37:46;;;;;;;3.67;2.70;;;17.10;99.90;;;;;;5008304;28;20454;-47
2022/10/18 12:40:19;;;;;;;3.90;3.37;;;17.20;99.90;;;;;;5008126;28;20463;-48
2022/10/18 12:42:48;;;;;;;3.60;3.13;;;17.20;99.90;;;;;;5007881;28;20448;-48
2022/10/18 12:45:34;;;;;;;6.97;4.20;;;17.30;99.90;;;;;;5008143;28;20883;-48
2022/10/18 12:48:02;;;;;;;4.00;2.83;;;17.30;99.90;;;;;;5008119;28;20518;-47
2022/10/18 12:50:33;;;;;;;8.60;3.57;;;17.20;99.90;;;;;;5008152;28;20546;-48
2022/10/18 12:53:07;;;;;;;5.43;3.50;;;17.40;99.90;;;;;;5008148;28;20475;-49
2022/10/18 12:55:37;;;;;;;3.90;2.53;;;17.30;99.90;;;;;;5008076;28;20451;-48
2022/10/18 12:58:20;;;;;;;6.03;3.13;;;17.30;99.90;;;;;;5008676;28;20448;-47
2022/10/18 13:01:07;;;;;;;3.80;2.97;;;17.40;99.90;;;;;;5008101;28;20558;-49
2022/10/18 13:03:59;;;;;;;4.57;3.23;;;17.60;99.90;;;;;;5008131;28;20447;-49